Airfield :
LOGIN :

Register | Disclaimer

   EN    FR    IT 

 










Legend :    VFR   Marginal VFR   IFR   Intensive IFR   Very Intensive IFR
Visi :
Ceiling :
>= 8 km
>= 3000ft
5 to 8 km
1000 to 3000 ft
1500m to 5 km
500 to 1000 ft
800 to 1500m
200 to 500 ft
< 800m
< 200 ft
Symbols :   Thunderstorms  Fog  Heavy snow  Heavy precipitations  Wind > 20 kt
SIGMETs :     Misc.  Thunderstorms  Icing  Turbulence  Mountain Waves  Volcanic Ashes






- Airport Elevation : 277 ft
- IATA code : JER


EGJJ - Jersey

CURRENT METAR :
  • 310020Z AUTO 17013KT 130V190 9999 OVC029/// 14/12 Q1019

EXPIRED METARs :
  • 302350Z AUTO 18012KT 9999 SCT026/// OVC031/// 14/12 Q1020
  • 302320Z AUTO 17012KT 9999 OVC029/// 14/12 Q1020
  • 302250Z AUTO 17012KT 9999 OVC027/// 14/12 Q1020
  • 302220Z AUTO 17012KT 9999 OVC026/// 14/13 Q1020
  • 302150Z AUTO 18011KT 9999 OVC027/// 14/13 Q1021

TAF TAF EGJJ
Valid from the 31 at 00:00 until the 31 at 09:00 UTC


302255Z 3100/3109 17016KT 9999 FEW015 BKN025
BECMG 3105/3108 17026KT
ATIS : +44 1534 498 073



MET'MAP, your aeronautical weather chart ! - Copyright ORBIFLY December 2007 - Disclaimer

ORBIFLY MET'MAP TEAM :

Programming & Development : Alexandra Zaïnal
Concept & original design : Baudouin d'Aumeries
Assistance for programming : Marc-Olivier Méhu
Technical & hardware support : Manuel Goepfert

Contact : metmap@orbifly.com




SOURCES & CREDITS :

   NOAA